sensor_id;sensor_type;location;lat;lon;timestamp;P1;durP1;ratioP1;P2;durP2;ratioP2
19566;SDS011;9930;49.240;8.548;2022-10-31T00:01:49;7.30;;;4.78;;
19566;SDS011;9930;49.240;8.548;2022-10-31T00:04:16;7.05;;;4.97;;
19566;SDS011;9930;49.240;8.548;2022-10-31T00:06:48;10.13;;;5.00;;
19566;SDS011;9930;49.240;8.548;2022-10-31T00:09:17;7.70;;;5.15;;
19566;SDS011;9930;49.240;8.548;2022-10-31T00:11:45;5.63;;;4.60;;
19566;SDS011;9930;49.240;8.548;2022-10-31T00:14:15;5.97;;;4.10;;
19566;SDS011;9930;49.240;8.548;2022-10-31T00:16:45;4.90;;;4.40;;
19566;SDS011;9930;49.240;8.548;2022-10-31T00:19:23;6.45;;;4.25;;
19566;SDS011;9930;49.240;8.548;2022-10-31T00:21:53;5.18;;;4.10;;
19566;SDS011;9930;49.240;8.548;2022-10-31T00:24:23;8.68;;;4.43;;
19566;SDS011;9930;49.240;8.548;2022-10-31T00:26:53;6.05;;;4.28;;
19566;SDS011;9930;49.240;8.548;2022-10-31T00:29:23;4.82;;;4.30;;
19566;SDS011;9930;49.240;8.548;2022-10-31T00:31:53;5.38;;;3.97;;
19566;SDS011;9930;49.240;8.548;2022-10-31T00:34:27;4.50;;;4.07;;
19566;SDS011;9930;49.240;8.548;2022-10-31T00:36:53;5.65;;;4.28;;
19566;SDS011;9930;49.240;8.548;2022-10-31T00:39:24;6.63;;;4.53;;
19566;SDS011;9930;49.240;8.548;2022-10-31T00:41:51;4.85;;;4.05;;
19566;SDS011;9930;49.240;8.548;2022-10-31T00:44:19;5.47;;;4.43;;
19566;SDS011;9930;49.240;8.548;2022-10-31T00:46:45;5.90;;;4.57;;
19566;SDS011;9930;49.240;8.548;2022-10-31T00:49:20;5.72;;;4.57;;
19566;SDS011;9930;49.240;8.548;2022-10-31T00:51:46;4.97;;;4.50;;
19566;SDS011;9930;49.240;8.548;2022-10-31T00:54:16;5.13;;;4.63;;
19566;SDS011;9930;49.240;8.548;2022-10-31T00:56:48;6.13;;;4.63;;
19566;SDS011;9930;49.240;8.548;2022-10-31T00:59:16;5.03;;;4.38;;
19566;SDS011;9930;49.240;8.548;2022-10-31T01:01:45;5.10;;;4.50;;
19566;SDS011;9930;49.240;8.548;2022-10-31T01:04:15;5.18;;;4.57;;
19566;SDS011;9930;49.240;8.548;2022-10-31T01:06:46;7.30;;;4.70;;
19566;SDS011;9930;49.240;8.548;2022-10-31T01:09:20;5.50;;;4.60;;
19566;SDS011;9930;49.240;8.548;2022-10-31T01:11:52;6.35;;;4.57;;
19566;SDS011;9930;49.240;8.548;2022-10-31T01:14:20;4.65;;;3.95;;
19566;SDS011;9930;49.240;8.548;2022-10-31T01:16:50;4.80;;;4.30;;
19566;SDS011;9930;49.240;8.548;2022-10-31T01:19:20;8.82;;;4.70;;
19566;SDS011;9930;49.240;8.548;2022-10-31T01:21:50;6.63;;;4.40;;
19566;SDS011;9930;49.240;8.548;2022-10-31T01:24:23;5.10;;;4.20;;
19566;SDS011;9930;49.240;8.548;2022-10-31T01:26:53;5.65;;;4.20;;
19566;SDS011;9930;49.240;8.548;2022-10-31T01:29:22;4.88;;;4.38;;
19566;SDS011;9930;49.240;8.548;2022-10-31T01:31:53;4.85;;;4.30;;
19566;SDS011;9930;49.240;8.548;2022-10-31T01:34:22;5.03;;;3.80;;
19566;SDS011;9930;49.240;8.548;2022-10-31T01:36:50;4.88;;;4.20;;
19566;SDS011;9930;49.240;8.548;2022-10-31T01:39:17;5.82;;;4.15;;
19566;SDS011;9930;49.240;8.548;2022-10-31T01:41:54;6.35;;;4.60;;
19566;SDS011;9930;49.240;8.548;2022-10-31T01:47:08;5.53;;;4.20;;
19566;SDS011;9930;49.240;8.548;2022-10-31T01:49:53;5.35;;;3.85;;
19566;SDS011;9930;49.240;8.548;2022-10-31T01:52:29;4.68;;;4.20;;
19566;SDS011;9930;49.240;8.548;2022-10-31T01:55:02;4.53;;;3.83;;
19566;SDS011;9930;49.240;8.548;2022-10-31T01:57:40;4.50;;;4.07;;
19566;SDS011;9930;49.240;8.548;2022-10-31T02:00:15;4.78;;;4.10;;
19566;SDS011;9930;49.240;8.548;2022-10-31T02:02:45;4.13;;;3.70;;
19566;SDS011;9930;49.240;8.548;2022-10-31T02:05:21;4.78;;;4.05;;
19566;SDS011;9930;49.240;8.548;2022-10-31T02:10:36;5.13;;;3.95;;
19566;SDS011;9930;49.240;8.548;2022-10-31T02:13:03;8.45;;;4.18;;
19566;SDS011;9930;49.240;8.548;2022-10-31T02:15:32;5.78;;;3.97;;
19566;SDS011;9930;49.240;8.548;2022-10-31T02:18:03;4.55;;;4.10;;
19566;SDS011;9930;49.240;8.548;2022-10-31T02:20:39;5.00;;;3.90;;
19566;SDS011;9930;49.240;8.548;2022-10-31T02:24:12;4.72;;;3.97;;
19566;SDS011;9930;49.240;8.548;2022-10-31T02:28:00;5.40;;;4.05;;
19566;SDS011;9930;49.240;8.548;2022-10-31T02:30:18;4.32;;;3.92;;
19566;SDS011;9930;49.240;8.548;2022-10-31T02:36:26;4.38;;;3.70;;
19566;SDS011;9930;49.240;8.548;2022-10-31T02:42:23;5.10;;;4.10;;
19566;SDS011;9930;49.240;8.548;2022-10-31T02:45:34;4.85;;;3.75;;
19566;SDS011;9930;49.240;8.548;2022-10-31T02:48:28;4.80;;;4.07;;
19566;SDS011;9930;49.240;8.548;2022-10-31T02:51:03;5.05;;;4.00;;
19566;SDS011;9930;49.240;8.548;2022-10-31T02:53:35;4.65;;;4.25;;
19566;SDS011;9930;49.240;8.548;2022-10-31T02:58:36;4.78;;;4.05;;
19566;SDS011;9930;49.240;8.548;2022-10-31T03:04:18;4.65;;;3.90;;
19566;SDS011;9930;49.240;8.548;2022-10-31T03:12:30;4.20;;;3.80;;
19566;SDS011;9930;49.240;8.548;2022-10-31T03:15:33;4.57;;;4.18;;
19566;SDS011;9930;49.240;8.548;2022-10-31T03:18:27;4.68;;;4.10;;
19566;SDS011;9930;49.240;8.548;2022-10-31T03:23:38;5.18;;;4.03;;
19566;SDS011;9930;49.240;8.548;2022-10-31T03:26:10;5.68;;;4.43;;
19566;SDS011;9930;49.240;8.548;2022-10-31T03:28:41;4.60;;;4.20;;
19566;SDS011;9930;49.240;8.548;2022-10-31T03:31:17;4.07;;;3.65;;
19566;SDS011;9930;49.240;8.548;2022-10-31T03:33:54;4.68;;;4.20;;
19566;SDS011;9930;49.240;8.548;2022-10-31T03:36:24;5.10;;;3.95;;
19566;SDS011;9930;49.240;8.548;2022-10-31T03:38:53;7.00;;;4.22;;
19566;SDS011;9930;49.240;8.548;2022-10-31T03:41:23;6.22;;;4.45;;
19566;SDS011;9930;49.240;8.548;2022-10-31T03:44:01;5.93;;;4.30;;
19566;SDS011;9930;49.240;8.548;2022-10-31T03:46:37;4.43;;;3.97;;
19566;SDS011;9930;49.240;8.548;2022-10-31T03:49:03;4.85;;;4.03;;
19566;SDS011;9930;49.240;8.548;2022-10-31T03:51:32;6.07;;;4.50;;
19566;SDS011;9930;49.240;8.548;2022-10-31T03:57:26;5.43;;;3.88;;
19566;SDS011;9930;49.240;8.548;2022-10-31T04:00:10;4.85;;;3.97;;
19566;SDS011;9930;49.240;8.548;2022-10-31T04:02:40;4.68;;;3.90;;
19566;SDS011;9930;49.240;8.548;2022-10-31T04:05:27;4.93;;;3.97;;
19566;SDS011;9930;49.240;8.548;2022-10-31T04:07:54;5.65;;;4.15;;
19566;SDS011;9930;49.240;8.548;2022-10-31T04:10:23;5.70;;;4.05;;
19566;SDS011;9930;49.240;8.548;2022-10-31T04:12:55;6.47;;;4.28;;
19566;SDS011;9930;49.240;8.548;2022-10-31T04:15:30;4.82;;;4.30;;
19566;SDS011;9930;49.240;8.548;2022-10-31T04:17:58;5.93;;;4.15;;
19566;SDS011;9930;49.240;8.548;2022-10-31T04:23:35;5.97;;;3.63;;
19566;SDS011;9930;49.240;8.548;2022-10-31T04:26:01;6.20;;;4.57;;
19566;SDS011;9930;49.240;8.548;2022-10-31T04:28:29;5.30;;;4.53;;
19566;SDS011;9930;49.240;8.548;2022-10-31T04:30:55;5.43;;;4.13;;
19566;SDS011;9930;49.240;8.548;2022-10-31T04:33:21;4.30;;;3.90;;
19566;SDS011;9930;49.240;8.548;2022-10-31T04:35:51;4.57;;;4.10;;
19566;SDS011;9930;49.240;8.548;2022-10-31T04:38:21;4.65;;;4.20;;
19566;SDS011;9930;49.240;8.548;2022-10-31T04:40:50;4.40;;;4.00;;
19566;SDS011;9930;49.240;8.548;2022-10-31T04:43:18;5.30;;;4.57;;
19566;SDS011;9930;49.240;8.548;2022-10-31T04:45:52;7.25;;;5.63;;
19566;SDS011;9930;49.240;8.548;2022-10-31T04:48:20;6.85;;;6.03;;
19566;SDS011;9930;49.240;8.548;2022-10-31T04:50:47;8.40;;;7.50;;
19566;SDS011;9930;49.240;8.548;2022-10-31T04:53:19;10.10;;;7.82;;
19566;SDS011;9930;49.240;8.548;2022-10-31T04:55:45;9.23;;;8.27;;
19566;SDS011;9930;49.240;8.548;2022-10-31T04:58:24;10.48;;;9.48;;
19566;SDS011;9930;49.240;8.548;2022-10-31T05:00:53;10.73;;;9.63;;
19566;SDS011;9930;49.240;8.548;2022-10-31T05:03:20;10.75;;;9.13;;
19566;SDS011;9930;49.240;8.548;2022-10-31T05:05:48;10.23;;;8.38;;
19566;SDS011;9930;49.240;8.548;2022-10-31T05:08:17;8.50;;;7.65;;
19566;SDS011;9930;49.240;8.548;2022-10-31T05:10:45;8.93;;;7.53;;
19566;SDS011;9930;49.240;8.548;2022-10-31T05:13:23;8.00;;;7.13;;
19566;SDS011;9930;49.240;8.548;2022-10-31T05:15:50;7.13;;;6.20;;
19566;SDS011;9930;49.240;8.548;2022-10-31T05:18:17;7.75;;;5.90;;
19566;SDS011;9930;49.240;8.548;2022-10-31T05:20:46;6.50;;;5.22;;
19566;SDS011;9930;49.240;8.548;2022-10-31T05:23:16;5.90;;;5.30;;
19566;SDS011;9930;49.240;8.548;2022-10-31T05:25:49;5.40;;;4.85;;
19566;SDS011;9930;49.240;8.548;2022-10-31T05:28:17;8.88;;;5.40;;
19566;SDS011;9930;49.240;8.548;2022-10-31T05:30:46;5.65;;;5.07;;
19566;SDS011;9930;49.240;8.548;2022-10-31T05:33:20;6.18;;;4.88;;
19566;SDS011;9930;49.240;8.548;2022-10-31T05:35:48;7.60;;;5.50;;
19566;SDS011;9930;49.240;8.548;2022-10-31T05:38:19;6.05;;;4.80;;
19566;SDS011;9930;49.240;8.548;2022-10-31T05:40:58;5.32;;;4.82;;
19566;SDS011;9930;49.240;8.548;2022-10-31T05:43:27;6.85;;;5.60;;
19566;SDS011;9930;49.240;8.548;2022-10-31T05:45:54;6.20;;;5.20;;
19566;SDS011;9930;49.240;8.548;2022-10-31T05:48:23;6.22;;;5.45;;
19566;SDS011;9930;49.240;8.548;2022-10-31T05:50:54;5.75;;;5.15;;
19566;SDS011;9930;49.240;8.548;2022-10-31T05:53:24;5.75;;;5.13;;
19566;SDS011;9930;49.240;8.548;2022-10-31T05:55:55;6.22;;;5.00;;
19566;SDS011;9930;49.240;8.548;2022-10-31T05:58:26;5.82;;;5.20;;
19566;SDS011;9930;49.240;8.548;2022-10-31T06:00:54;9.23;;;5.97;;
19566;SDS011;9930;49.240;8.548;2022-10-31T06:03:23;6.70;;;6.00;;
19566;SDS011;9930;49.240;8.548;2022-10-31T06:05:53;6.13;;;5.53;;
19566;SDS011;9930;49.240;8.548;2022-10-31T06:08:23;5.47;;;4.97;;
19566;SDS011;9930;49.240;8.548;2022-10-31T06:10:53;5.50;;;5.00;;
19566;SDS011;9930;49.240;8.548;2022-10-31T06:13:23;5.28;;;4.78;;
19566;SDS011;9930;49.240;8.548;2022-10-31T06:15:50;5.22;;;4.53;;
19566;SDS011;9930;49.240;8.548;2022-10-31T06:18:25;5.05;;;4.63;;
19566;SDS011;9930;49.240;8.548;2022-10-31T06:20:51;4.65;;;4.25;;
19566;SDS011;9930;49.240;8.548;2022-10-31T06:23:19;4.85;;;4.35;;
19566;SDS011;9930;49.240;8.548;2022-10-31T06:25:50;4.97;;;4.53;;
19566;SDS011;9930;49.240;8.548;2022-10-31T06:28:19;5.18;;;4.60;;
19566;SDS011;9930;49.240;8.548;2022-10-31T06:30:46;5.18;;;4.70;;
19566;SDS011;9930;49.240;8.548;2022-10-31T06:33:16;5.28;;;4.78;;
19566;SDS011;9930;49.240;8.548;2022-10-31T06:35:46;4.97;;;4.13;;
19566;SDS011;9930;49.240;8.548;2022-10-31T06:38:20;5.20;;;4.47;;
19566;SDS011;9930;49.240;8.548;2022-10-31T06:40:54;4.40;;;3.85;;
19566;SDS011;9930;49.240;8.548;2022-10-31T06:43:22;5.32;;;3.70;;
19566;SDS011;9930;49.240;8.548;2022-10-31T06:45:53;4.75;;;3.97;;
19566;SDS011;9930;49.240;8.548;2022-10-31T06:48:25;4.20;;;3.78;;
19566;SDS011;9930;49.240;8.548;2022-10-31T06:50:53;5.40;;;3.60;;
19566;SDS011;9930;49.240;8.548;2022-10-31T06:53:24;5.25;;;4.05;;
19566;SDS011;9930;49.240;8.548;2022-10-31T06:55:58;6.82;;;4.03;;
19566;SDS011;9930;49.240;8.548;2022-10-31T06:58:24;4.90;;;3.50;;
19566;SDS011;9930;49.240;8.548;2022-10-31T07:00:51;5.20;;;3.60;;
19566;SDS011;9930;49.240;8.548;2022-10-31T07:03:20;6.03;;;3.65;;
19566;SDS011;9930;49.240;8.548;2022-10-31T07:05:47;4.93;;;3.60;;
19566;SDS011;9930;49.240;8.548;2022-10-31T07:08:20;5.53;;;3.83;;
19566;SDS011;9930;49.240;8.548;2022-10-31T07:10:53;6.63;;;3.85;;
19566;SDS011;9930;49.240;8.548;2022-10-31T07:13:21;4.65;;;3.40;;
19566;SDS011;9930;49.240;8.548;2022-10-31T07:15:51;3.88;;;3.30;;
19566;SDS011;9930;49.240;8.548;2022-10-31T07:18:22;3.60;;;3.30;;
19566;SDS011;9930;49.240;8.548;2022-10-31T07:20:51;5.70;;;4.10;;
19566;SDS011;9930;49.240;8.548;2022-10-31T07:23:20;5.75;;;3.40;;
19566;SDS011;9930;49.240;8.548;2022-10-31T07:25:47;4.22;;;3.33;;
19566;SDS011;9930;49.240;8.548;2022-10-31T07:28:19;4.50;;;3.70;;
19566;SDS011;9930;49.240;8.548;2022-10-31T07:30:49;4.90;;;4.00;;
19566;SDS011;9930;49.240;8.548;2022-10-31T07:33:22;4.00;;;3.60;;
19566;SDS011;9930;49.240;8.548;2022-10-31T07:35:51;4.82;;;4.05;;
19566;SDS011;9930;49.240;8.548;2022-10-31T07:38:18;4.38;;;3.75;;
19566;SDS011;9930;49.240;8.548;2022-10-31T07:40:48;4.63;;;3.63;;
19566;SDS011;9930;49.240;8.548;2022-10-31T07:43:20;4.55;;;3.97;;
19566;SDS011;9930;49.240;8.548;2022-10-31T07:45:50;4.40;;;3.78;;
19566;SDS011;9930;49.240;8.548;2022-10-31T07:48:22;6.88;;;3.95;;
19566;SDS011;9930;49.240;8.548;2022-10-31T07:50:51;5.53;;;4.75;;
19566;SDS011;9930;49.240;8.548;2022-10-31T07:53:17;7.03;;;5.22;;
19566;SDS011;9930;49.240;8.548;2022-10-31T07:55:50;9.60;;;6.47;;
19566;SDS011;9930;49.240;8.548;2022-10-31T07:58:20;5.28;;;4.70;;
19566;SDS011;9930;49.240;8.548;2022-10-31T08:00:51;9.20;;;7.55;;
19566;SDS011;9930;49.240;8.548;2022-10-31T08:03:18;14.65;;;8.00;;
19566;SDS011;9930;49.240;8.548;2022-10-31T08:05:46;7.78;;;5.10;;
19566;SDS011;9930;49.240;8.548;2022-10-31T08:08:20;4.55;;;4.10;;
19566;SDS011;9930;49.240;8.548;2022-10-31T08:10:50;6.13;;;3.95;;
19566;SDS011;9930;49.240;8.548;2022-10-31T08:13:20;6.70;;;4.60;;
19566;SDS011;9930;49.240;8.548;2022-10-31T08:15:50;6.07;;;4.38;;
19566;SDS011;9930;49.240;8.548;2022-10-31T08:18:20;6.22;;;5.28;;
19566;SDS011;9930;49.240;8.548;2022-10-31T08:20:50;5.97;;;5.05;;
19566;SDS011;9930;49.240;8.548;2022-10-31T08:23:20;5.13;;;4.63;;
19566;SDS011;9930;49.240;8.548;2022-10-31T08:25:48;6.22;;;4.85;;
19566;SDS011;9930;49.240;8.548;2022-10-31T08:28:17;7.15;;;6.38;;
19566;SDS011;9930;49.240;8.548;2022-10-31T08:30:51;7.03;;;5.80;;
19566;SDS011;9930;49.240;8.548;2022-10-31T08:33:19;7.70;;;5.43;;
19566;SDS011;9930;49.240;8.548;2022-10-31T08:35:46;7.63;;;6.40;;
19566;SDS011;9930;49.240;8.548;2022-10-31T08:38:20;5.80;;;5.20;;
19566;SDS011;9930;49.240;8.548;2022-10-31T08:40:48;8.45;;;5.20;;
19566;SDS011;9930;49.240;8.548;2022-10-31T08:43:20;5.30;;;4.78;;
19566;SDS011;9930;49.240;8.548;2022-10-31T08:45:54;6.28;;;5.68;;
19566;SDS011;9930;49.240;8.548;2022-10-31T08:48:23;6.93;;;5.78;;
19566;SDS011;9930;49.240;8.548;2022-10-31T08:50:50;6.15;;;5.13;;
19566;SDS011;9930;49.240;8.548;2022-10-31T08:53:23;8.23;;;5.18;;
19566;SDS011;9930;49.240;8.548;2022-10-31T08:55:53;6.00;;;5.40;;
19566;SDS011;9930;49.240;8.548;2022-10-31T08:58:21;5.40;;;4.90;;
19566;SDS011;9930;49.240;8.548;2022-10-31T09:00:52;4.93;;;4.47;;
19566;SDS011;9930;49.240;8.548;2022-10-31T09:03:24;6.80;;;5.25;;
19566;SDS011;9930;49.240;8.548;2022-10-31T09:05:54;5.65;;;5.10;;
19566;SDS011;9930;49.240;8.548;2022-10-31T09:08:23;7.18;;;5.22;;
19566;SDS011;9930;49.240;8.548;2022-10-31T09:10:51;5.85;;;5.35;;
19566;SDS011;9930;49.240;8.548;2022-10-31T09:13:21;5.45;;;4.88;;
19566;SDS011;9930;49.240;8.548;2022-10-31T09:15:51;6.78;;;5.55;;
19566;SDS011;9930;49.240;8.548;2022-10-31T09:18:19;6.40;;;5.32;;
19566;SDS011;9930;49.240;8.548;2022-10-31T09:20:49;6.00;;;4.80;;
19566;SDS011;9930;49.240;8.548;2022-10-31T09:23:25;5.50;;;5.00;;
19566;SDS011;9930;49.240;8.548;2022-10-31T09:25:52;5.50;;;4.88;;
19566;SDS011;9930;49.240;8.548;2022-10-31T09:28:21;6.13;;;4.60;;
19566;SDS011;9930;49.240;8.548;2022-10-31T09:30:52;6.93;;;4.80;;
19566;SDS011;9930;49.240;8.548;2022-10-31T09:33:21;5.40;;;4.90;;
19566;SDS011;9930;49.240;8.548;2022-10-31T09:35:48;6.45;;;5.75;;
19566;SDS011;9930;49.240;8.548;2022-10-31T09:38:20;5.22;;;4.72;;
19566;SDS011;9930;49.240;8.548;2022-10-31T09:41:12;5.57;;;5.00;;
19566;SDS011;9930;49.240;8.548;2022-10-31T09:46:46;5.35;;;4.82;;
19566;SDS011;9930;49.240;8.548;2022-10-31T09:52:28;6.07;;;4.72;;
19566;SDS011;9930;49.240;8.548;2022-10-31T09:57:41;5.60;;;4.72;;
19566;SDS011;9930;49.240;8.548;2022-10-31T10:00:15;7.20;;;4.97;;
19566;SDS011;9930;49.240;8.548;2022-10-31T10:06:06;5.78;;;4.65;;
19566;SDS011;9930;49.240;8.548;2022-10-31T10:08:56;6.28;;;4.60;;
19566;SDS011;9930;49.240;8.548;2022-10-31T10:11:40;5.50;;;4.90;;
19566;SDS011;9930;49.240;8.548;2022-10-31T10:15:08;5.00;;;4.47;;
19566;SDS011;9930;49.240;8.548;2022-10-31T10:18:14;5.82;;;4.80;;
19566;SDS011;9930;49.240;8.548;2022-10-31T10:26:38;6.68;;;4.90;;
19566;SDS011;9930;49.240;8.548;2022-10-31T10:32:01;5.40;;;4.90;;
19566;SDS011;9930;49.240;8.548;2022-10-31T10:34:43;6.65;;;4.78;;
19566;SDS011;9930;49.240;8.548;2022-10-31T10:37:40;5.05;;;4.45;;
19566;SDS011;9930;49.240;8.548;2022-10-31T10:40:13;6.55;;;5.00;;
19566;SDS011;9930;49.240;8.548;2022-10-31T10:52:24;5.20;;;4.32;;
19566;SDS011;9930;49.240;8.548;2022-10-31T10:57:49;6.70;;;4.50;;
19566;SDS011;9930;49.240;8.548;2022-10-31T11:00:26;6.25;;;4.55;;
19566;SDS011;9930;49.240;8.548;2022-10-31T11:02:59;6.45;;;4.95;;
19566;SDS011;9930;49.240;8.548;2022-10-31T11:08:29;5.60;;;4.68;;
19566;SDS011;9930;49.240;8.548;2022-10-31T11:11:02;5.75;;;4.40;;
19566;SDS011;9930;49.240;8.548;2022-10-31T11:13:35;6.45;;;5.20;;
19566;SDS011;9930;49.240;8.548;2022-10-31T11:16:03;5.22;;;4.65;;
19566;SDS011;9930;49.240;8.548;2022-10-31T11:18:40;5.78;;;4.90;;
19566;SDS011;9930;49.240;8.548;2022-10-31T11:21:28;6.53;;;5.38;;
19566;SDS011;9930;49.240;8.548;2022-10-31T11:26:38;5.68;;;5.13;;
19566;SDS011;9930;49.240;8.548;2022-10-31T11:29:13;5.22;;;4.72;;
19566;SDS011;9930;49.240;8.548;2022-10-31T11:31:44;5.25;;;4.75;;
19566;SDS011;9930;49.240;8.548;2022-10-31T11:34:32;6.72;;;5.32;;
19566;SDS011;9930;49.240;8.548;2022-10-31T11:37:17;5.63;;;5.03;;
19566;SDS011;9930;49.240;8.548;2022-10-31T11:39:55;5.85;;;5.25;;
19566;SDS011;9930;49.240;8.548;2022-10-31T11:42:34;6.88;;;5.30;;
19566;SDS011;9930;49.240;8.548;2022-10-31T11:45:07;8.68;;;5.00;;
19566;SDS011;9930;49.240;8.548;2022-10-31T11:47:48;7.10;;;5.00;;
19566;SDS011;9930;49.240;8.548;2022-10-31T11:50:24;8.35;;;4.95;;
19566;SDS011;9930;49.240;8.548;2022-10-31T11:53:10;5.45;;;4.90;;
19566;SDS011;9930;49.240;8.548;2022-10-31T11:56:13;5.72;;;4.88;;
19566;SDS011;9930;49.240;8.548;2022-10-31T11:58:59;6.68;;;5.13;;
19566;SDS011;9930;49.240;8.548;2022-10-31T12:01:31;6.93;;;5.18;;
19566;SDS011;9930;49.240;8.548;2022-10-31T12:06:36;7.80;;;5.68;;
19566;SDS011;9930;49.240;8.548;2022-10-31T12:23:34;6.28;;;4.90;;
19566;SDS011;9930;49.240;8.548;2022-10-31T12:35:18;7.30;;;5.00;;
19566;SDS011;9930;49.240;8.548;2022-10-31T12:44:06;4.85;;;4.32;;
19566;SDS011;9930;49.240;8.548;2022-10-31T12:49:49;5.55;;;4.65;;
19566;SDS011;9930;49.240;8.548;2022-10-31T12:58:33;6.03;;;4.30;;
19566;SDS011;9930;49.240;8.548;2022-10-31T13:01:12;5.57;;;4.90;;
19566;SDS011;9930;49.240;8.548;2022-10-31T13:03:57;5.20;;;4.70;;
19566;SDS011;9930;49.240;8.548;2022-10-31T13:06:55;5.55;;;4.28;;
19566;SDS011;9930;49.240;8.548;2022-10-31T13:09:32;5.53;;;4.53;;
19566;SDS011;9930;49.240;8.548;2022-10-31T13:12:08;6.43;;;4.70;;
19566;SDS011;9930;49.240;8.548;2022-10-31T13:14:42;7.15;;;4.90;;
19566;SDS011;9930;49.240;8.548;2022-10-31T13:17:22;5.25;;;4.72;;
19566;SDS011;9930;49.240;8.548;2022-10-31T13:20:08;6.18;;;5.20;;
19566;SDS011;9930;49.240;8.548;2022-10-31T13:22:46;5.63;;;4.78;;
19566;SDS011;9930;49.240;8.548;2022-10-31T13:25:38;4.82;;;4.40;;
19566;SDS011;9930;49.240;8.548;2022-10-31T13:28:23;6.35;;;5.00;;
19566;SDS011;9930;49.240;8.548;2022-10-31T13:31:01;5.90;;;5.30;;
19566;SDS011;9930;49.240;8.548;2022-10-31T13:33:34;5.20;;;4.72;;
19566;SDS011;9930;49.240;8.548;2022-10-31T13:36:33;5.20;;;4.68;;
19566;SDS011;9930;49.240;8.548;2022-10-31T13:39:39;7.68;;;4.90;;
19566;SDS011;9930;49.240;8.548;2022-10-31T13:42:45;6.40;;;5.53;;
19566;SDS011;9930;49.240;8.548;2022-10-31T13:45:25;5.00;;;4.32;;
19566;SDS011;9930;49.240;8.548;2022-10-31T13:47:55;5.97;;;5.20;;
19566;SDS011;9930;49.240;8.548;2022-10-31T13:51:00;9.57;;;5.47;;
19566;SDS011;9930;49.240;8.548;2022-10-31T13:54:37;5.25;;;4.45;;
19566;SDS011;9930;49.240;8.548;2022-10-31T13:56:55;6.07;;;4.88;;
19566;SDS011;9930;49.240;8.548;2022-10-31T13:59:23;5.57;;;4.50;;
19566;SDS011;9930;49.240;8.548;2022-10-31T14:02:00;6.78;;;4.85;;
19566;SDS011;9930;49.240;8.548;2022-10-31T14:04:49;5.00;;;4.50;;
19566;SDS011;9930;49.240;8.548;2022-10-31T14:07:21;5.75;;;5.03;;
19566;SDS011;9930;49.240;8.548;2022-10-31T14:13:17;7.68;;;5.22;;
19566;SDS011;9930;49.240;8.548;2022-10-31T14:16:02;4.82;;;4.28;;
19566;SDS011;9930;49.240;8.548;2022-10-31T14:21:31;5.10;;;4.60;;
19566;SDS011;9930;49.240;8.548;2022-10-31T14:24:01;4.40;;;3.88;;
19566;SDS011;9930;49.240;8.548;2022-10-31T14:27:02;5.50;;;4.50;;
19566;SDS011;9930;49.240;8.548;2022-10-31T14:29:53;5.85;;;5.15;;
19566;SDS011;9930;49.240;8.548;2022-10-31T14:32:25;5.55;;;4.60;;
19566;SDS011;9930;49.240;8.548;2022-10-31T14:34:55;5.90;;;4.40;;
19566;SDS011;9930;49.240;8.548;2022-10-31T14:52:29;7.45;;;6.50;;
19566;SDS011;9930;49.240;8.548;2022-10-31T14:54:58;13.23;;;6.88;;
19566;SDS011;9930;49.240;8.548;2022-10-31T14:57:27;7.07;;;6.38;;
19566;SDS011;9930;49.240;8.548;2022-10-31T15:00:06;10.98;;;7.10;;
19566;SDS011;9930;49.240;8.548;2022-10-31T15:03:00;8.20;;;6.85;;
19566;SDS011;9930;49.240;8.548;2022-10-31T15:05:52;9.32;;;8.38;;
19566;SDS011;9930;49.240;8.548;2022-10-31T15:08:40;9.07;;;7.47;;
19566;SDS011;9930;49.240;8.548;2022-10-31T15:11:14;8.45;;;7.65;;
19566;SDS011;9930;49.240;8.548;2022-10-31T15:13:44;8.32;;;7.45;;
19566;SDS011;9930;49.240;8.548;2022-10-31T15:16:25;7.95;;;6.93;;
19566;SDS011;9930;49.240;8.548;2022-10-31T15:19:05;8.77;;;7.50;;
19566;SDS011;9930;49.240;8.548;2022-10-31T15:21:39;10.02;;;7.15;;
19566;SDS011;9930;49.240;8.548;2022-10-31T15:24:11;8.25;;;6.75;;
19566;SDS011;9930;49.240;8.548;2022-10-31T15:26:43;8.63;;;7.28;;
19566;SDS011;9930;49.240;8.548;2022-10-31T15:29:23;8.27;;;6.60;;
19566;SDS011;9930;49.240;8.548;2022-10-31T15:31:59;7.88;;;6.95;;
19566;SDS011;9930;49.240;8.548;2022-10-31T15:34:51;8.80;;;6.88;;
19566;SDS011;9930;49.240;8.548;2022-10-31T15:37:22;8.18;;;6.63;;
19566;SDS011;9930;49.240;8.548;2022-10-31T15:39:51;6.70;;;6.00;;
19566;SDS011;9930;49.240;8.548;2022-10-31T15:42:32;7.28;;;6.38;;
19566;SDS011;9930;49.240;8.548;2022-10-31T15:47:38;7.38;;;6.28;;
19566;SDS011;9930;49.240;8.548;2022-10-31T15:50:39;8.43;;;6.97;;
19566;SDS011;9930;49.240;8.548;2022-10-31T15:53:52;7.53;;;6.63;;
19566;SDS011;9930;49.240;8.548;2022-10-31T15:56:11;7.78;;;6.97;;
19566;SDS011;9930;49.240;8.548;2022-10-31T15:58:51;9.25;;;6.90;;
19566;SDS011;9930;49.240;8.548;2022-10-31T16:01:22;7.32;;;5.85;;
19566;SDS011;9930;49.240;8.548;2022-10-31T16:04:19;7.47;;;6.47;;
19566;SDS011;9930;49.240;8.548;2022-10-31T16:09:52;9.15;;;7.00;;
19566;SDS011;9930;49.240;8.548;2022-10-31T16:12:34;6.85;;;6.15;;
19566;SDS011;9930;49.240;8.548;2022-10-31T16:15:12;7.60;;;6.55;;
19566;SDS011;9930;49.240;8.548;2022-10-31T16:17:40;6.70;;;5.70;;
19566;SDS011;9930;49.240;8.548;2022-10-31T16:20:22;6.65;;;5.78;;
19566;SDS011;9930;49.240;8.548;2022-10-31T16:22:52;6.82;;;6.10;;
19566;SDS011;9930;49.240;8.548;2022-10-31T16:25:27;6.45;;;5.53;;
19566;SDS011;9930;49.240;8.548;2022-10-31T16:28:13;7.65;;;6.68;;
19566;SDS011;9930;49.240;8.548;2022-10-31T16:30:52;6.95;;;6.25;;
19566;SDS011;9930;49.240;8.548;2022-10-31T16:38:55;6.32;;;5.82;;
19566;SDS011;9930;49.240;8.548;2022-10-31T16:41:21;6.40;;;5.78;;
19566;SDS011;9930;49.240;8.548;2022-10-31T16:43:50;7.70;;;6.55;;
19566;SDS011;9930;49.240;8.548;2022-10-31T16:46:20;6.78;;;6.00;;
19566;SDS011;9930;49.240;8.548;2022-10-31T16:48:51;6.95;;;5.88;;
19566;SDS011;9930;49.240;8.548;2022-10-31T16:51:22;7.55;;;6.28;;
19566;SDS011;9930;49.240;8.548;2022-10-31T16:53:51;16.73;;;12.60;;
19566;SDS011;9930;49.240;8.548;2022-10-31T16:56:27;11.02;;;9.43;;
19566;SDS011;9930;49.240;8.548;2022-10-31T16:59:01;10.18;;;7.85;;
19566;SDS011;9930;49.240;8.548;2022-10-31T17:01:31;8.75;;;7.50;;
19566;SDS011;9930;49.240;8.548;2022-10-31T17:04:01;10.07;;;7.72;;
19566;SDS011;9930;49.240;8.548;2022-10-31T17:06:29;9.18;;;8.27;;
19566;SDS011;9930;49.240;8.548;2022-10-31T17:08:57;9.82;;;7.70;;
19566;SDS011;9930;49.240;8.548;2022-10-31T17:11:25;7.45;;;6.75;;
19566;SDS011;9930;49.240;8.548;2022-10-31T17:13:53;7.60;;;6.88;;
19566;SDS011;9930;49.240;8.548;2022-10-31T17:16:21;9.25;;;7.47;;
19566;SDS011;9930;49.240;8.548;2022-10-31T17:18:51;8.30;;;7.13;;
19566;SDS011;9930;49.240;8.548;2022-10-31T17:21:19;7.95;;;6.40;;
19566;SDS011;9930;49.240;8.548;2022-10-31T17:23:49;6.78;;;6.07;;
19566;SDS011;9930;49.240;8.548;2022-10-31T17:26:17;7.90;;;6.55;;
19566;SDS011;9930;49.240;8.548;2022-10-31T17:28:47;7.10;;;5.80;;
19566;SDS011;9930;49.240;8.548;2022-10-31T17:31:23;10.38;;;8.75;;
19566;SDS011;9930;49.240;8.548;2022-10-31T17:33:55;8.45;;;7.35;;
19566;SDS011;9930;49.240;8.548;2022-10-31T17:36:27;8.35;;;6.65;;
19566;SDS011;9930;49.240;8.548;2022-10-31T17:38:53;7.78;;;6.78;;
19566;SDS011;9930;49.240;8.548;2022-10-31T17:41:21;8.02;;;6.95;;
19566;SDS011;9930;49.240;8.548;2022-10-31T17:44:00;9.95;;;8.30;;
19566;SDS011;9930;49.240;8.548;2022-10-31T17:46:28;10.00;;;8.45;;
19566;SDS011;9930;49.240;8.548;2022-10-31T17:48:54;11.27;;;10.07;;
19566;SDS011;9930;49.240;8.548;2022-10-31T17:51:24;11.27;;;10.18;;
19566;SDS011;9930;49.240;8.548;2022-10-31T17:53:51;9.63;;;8.63;;
19566;SDS011;9930;49.240;8.548;2022-10-31T17:56:17;8.68;;;7.80;;
19566;SDS011;9930;49.240;8.548;2022-10-31T17:58:46;8.30;;;7.25;;
19566;SDS011;9930;49.240;8.548;2022-10-31T18:01:17;8.18;;;7.38;;
19566;SDS011;9930;49.240;8.548;2022-10-31T18:03:56;8.93;;;8.02;;
19566;SDS011;9930;49.240;8.548;2022-10-31T18:06:24;8.63;;;7.70;;
19566;SDS011;9930;49.240;8.548;2022-10-31T18:08:52;9.15;;;8.25;;